Time;durP1;ratioP1;P1;durP2;ratioP2;P2;SDS_P1;SDS_P2;PMS_P1;PMS_P2;Temp;Humidity;BMP_temperature;BMP_pressure;BME280_temperature;BME280_humidity;BME280_pressure;Samples;Min_cycle;Max_cycle;Signal;HPM_P1;HPM_P2
2021/12/19 00:00:09;;;;;;;6.50;2.90;;;8.80;99.90;;;;;;5081879;28;20451;-80
2021/12/19 00:10:53;;;;;;;9.03;3.10;;;8.80;99.90;;;;;;5075915;28;20454;-80
2021/12/19 00:13:19;;;;;;;6.20;3.13;;;8.80;99.90;;;;;;5075846;28;20504;-80
2021/12/19 00:15:46;;;;;;;4.90;2.70;;;8.80;99.90;;;;;;5075721;28;20486;-81
2021/12/19 00:18:13;;;;;;;7.40;3.10;;;8.80;99.90;;;;;;5075562;28;20538;-80
2021/12/19 00:20:41;;;;;;;6.13;2.40;;;8.90;99.90;;;;;;5073719;28;20513;-80
2021/12/19 00:23:07;;;;;;;10.83;3.23;;;8.90;99.90;;;;;;5075831;28;20534;-80
2021/12/19 00:25:34;;;;;;;6.53;2.70;;;8.80;99.90;;;;;;5075510;28;20538;-81
2021/12/19 00:28:00;;;;;;;7.60;3.23;;;8.90;99.90;;;;;;5075582;28;20571;-80
2021/12/19 00:30:27;;;;;;;7.03;3.20;;;8.90;99.90;;;;;;5075392;28;20542;-80
2021/12/19 00:32:53;;;;;;;5.47;3.00;;;8.90;99.90;;;;;;5075421;28;20545;-80
2021/12/19 00:35:20;;;;;;;11.10;3.60;;;8.90;99.90;;;;;;5063321;28;20571;-81
2021/12/19 00:37:48;;;;;;;10.40;3.60;;;8.90;99.90;;;;;;5061103;28;20486;-80
2021/12/19 00:40:15;;;;;;;9.87;3.77;;;8.90;99.90;;;;;;5075037;28;20486;-81
2021/12/19 00:42:42;;;;;;;5.97;3.80;;;8.90;99.90;;;;;;5074866;28;21034;-80
2021/12/19 00:45:16;;;;;;;4.30;2.80;;;8.90;99.90;;;;;;5074690;28;20501;-81
2021/12/19 00:47:45;;;;;;;11.10;3.90;;;8.90;99.90;;;;;;5075328;28;20475;-81
2021/12/19 00:50:14;;;;;;;5.23;3.10;;;8.90;99.90;;;;;;5075057;28;20690;-81
2021/12/19 00:52:40;;;;;;;4.93;2.50;;;8.90;99.90;;;;;;5075381;28;20448;-81
2021/12/19 00:55:09;;;;;;;7.70;2.83;;;8.90;99.90;;;;;;5075053;28;20530;-81
2021/12/19 00:57:36;;;;;;;5.03;2.83;;;8.90;99.90;;;;;;5074591;28;20534;-81
2021/12/19 01:00:03;;;;;;;3.77;3.47;;;8.90;99.90;;;;;;5067340;28;20543;-81
2021/12/19 01:02:30;;;;;;;4.80;2.70;;;8.90;99.90;;;;;;5074620;28;20538;-81
2021/12/19 01:04:57;;;;;;;8.10;3.57;;;8.80;99.90;;;;;;5074615;28;20980;-81
2021/12/19 01:07:23;;;;;;;4.30;3.30;;;8.90;99.90;;;;;;5074312;28;20570;-81
2021/12/19 01:09:50;;;;;;;6.07;3.30;;;8.90;99.90;;;;;;5074568;28;20475;-81
2021/12/19 01:12:18;;;;;;;5.03;3.73;;;8.80;99.90;;;;;;5074353;28;20555;-81
2021/12/19 01:14:44;;;;;;;11.43;3.80;;;8.80;99.90;;;;;;5074443;28;20830;-81
2021/12/19 01:17:11;;;;;;;10.37;4.37;;;8.80;99.90;;;;;;5074246;28;20916;-81
2021/12/19 01:19:38;;;;;;;8.50;4.37;;;8.80;99.90;;;;;;5074277;28;20489;-81
2021/12/19 01:22:05;;;;;;;7.30;4.27;;;8.80;99.90;;;;;;5073973;28;21057;-81
2021/12/19 01:24:32;;;;;;;5.57;3.50;;;8.80;99.90;;;;;;5074115;28;20534;-81
2021/12/19 01:26:58;;;;;;;8.37;4.50;;;8.80;99.90;;;;;;5073756;28;20533;-81
2021/12/19 01:29:26;;;;;;;4.40;3.90;;;8.80;99.90;;;;;;5074121;28;20512;-81
2021/12/19 01:31:53;;;;;;;7.13;4.17;;;8.80;99.90;;;;;;5074046;28;20551;-81
2021/12/19 01:34:19;;;;;;;5.57;4.10;;;8.70;99.90;;;;;;5074055;28;20531;-81
2021/12/19 01:36:46;;;;;;;5.37;4.60;;;8.70;99.90;;;;;;5073826;28;20479;-81
2021/12/19 01:39:14;;;;;;;5.40;4.10;;;8.80;99.90;;;;;;5073809;28;20542;-80
2021/12/19 01:41:47;;;;;;;8.37;4.93;;;8.80;99.90;;;;;;5073432;28;20978;-81
2021/12/19 01:44:14;;;;;;;8.17;5.80;;;8.80;99.90;;;;;;5073843;28;20448;-80
2021/12/19 01:46:44;;;;;;;7.30;5.20;;;8.70;99.90;;;;;;5073468;28;20534;-81
2021/12/19 01:49:10;;;;;;;7.90;5.07;;;8.80;99.90;;;;;;5073659;28;20483;-80
2021/12/19 01:51:37;;;;;;;6.00;5.33;;;8.70;99.90;;;;;;5073431;28;20547;-80
2021/12/19 01:54:04;;;;;;;6.20;5.60;;;8.70;99.90;;;;;;5073385;28;20531;-80
2021/12/19 01:56:31;;;;;;;6.87;5.30;;;8.70;99.90;;;;;;5073565;28;20878;-80
2021/12/19 01:58:58;;;;;;;6.90;5.40;;;8.70;99.90;;;;;;5080398;28;20529;-80
2021/12/19 02:01:25;;;;;;;6.57;5.90;;;8.70;99.90;;;;;;5072263;28;20497;-80
2021/12/19 02:03:53;;;;;;;9.03;5.27;;;8.70;99.90;;;;;;5074183;28;20539;-80
2021/12/19 02:06:20;;;;;;;6.53;5.37;;;8.70;99.90;;;;;;5081998;28;20530;-80
2021/12/19 02:08:48;;;;;;;11.07;5.27;;;8.70;99.90;;;;;;5072924;28;20483;-80
2021/12/19 02:11:15;;;;;;;6.67;4.60;;;8.70;99.90;;;;;;5073148;28;20451;-80
2021/12/19 02:13:42;;;;;;;7.43;4.97;;;8.70;99.90;;;;;;5073192;28;20470;-81
2021/12/19 02:16:10;;;;;;;6.27;4.37;;;8.70;99.90;;;;;;5072846;28;20523;-80
2021/12/19 02:18:37;;;;;;;4.43;3.70;;;8.70;99.90;;;;;;5072877;28;20530;-80
2021/12/19 02:21:05;;;;;;;4.10;3.70;;;8.70;99.90;;;;;;5072551;28;21028;-81
2021/12/19 02:23:32;;;;;;;8.53;3.50;;;8.70;99.90;;;;;;5072669;28;20570;-81
2021/12/19 02:25:58;;;;;;;4.70;3.10;;;8.70;99.90;;;;;;5072895;28;20476;-81
2021/12/19 02:28:25;;;;;;;4.13;3.30;;;8.70;99.90;;;;;;5072917;28;20899;-80
2021/12/19 02:30:53;;;;;;;8.33;3.30;;;8.70;99.90;;;;;;5072852;28;20855;-81
2021/12/19 02:33:24;;;;;;;7.27;3.33;;;8.70;99.90;;;;;;5072597;28;20905;-81
2021/12/19 02:35:58;;;;;;;6.60;2.80;;;8.70;99.90;;;;;;5072558;28;20479;-81
2021/12/19 02:49:37;;;;;;;3.33;2.30;;;8.70;99.90;;;;;;5048975;28;20467;-80
2021/12/19 02:52:11;;;;;;;6.23;2.90;;;8.70;99.90;;;;;;5061119;28;20644;-80
2021/12/19 02:54:39;;;;;;;5.00;2.17;;;8.70;99.90;;;;;;5072453;28;20570;-80
2021/12/19 02:57:06;;;;;;;5.10;2.50;;;8.70;99.90;;;;;;5072339;28;20443;-80
2021/12/19 02:59:33;;;;;;;8.73;2.50;;;8.70;99.90;;;;;;5060899;28;20494;-81
2021/12/19 03:01:59;;;;;;;2.63;2.10;;;8.70;99.90;;;;;;5072328;28;20446;-80
2021/12/19 03:04:26;;;;;;;4.80;2.37;;;8.70;99.90;;;;;;5072388;28;20886;-80
2021/12/19 03:06:53;;;;;;;2.70;2.00;;;8.70;99.90;;;;;;5072302;28;20531;-80
2021/12/19 03:09:35;;;;;;;3.27;1.67;;;8.70;99.90;;;;;;5071871;28;21104;-80
2021/12/19 03:12:11;;;;;;;4.57;2.30;;;8.70;99.90;;;;;;5072075;28;20451;-80
2021/12/19 03:20:10;;;;;;;5.43;2.83;;;8.70;99.90;;;;;;5072081;28;20438;-81
2021/12/19 03:22:37;;;;;;;6.10;2.70;;;8.70;99.90;;;;;;5072163;28;20427;-80
2021/12/19 03:25:04;;;;;;;7.93;2.93;;;8.70;99.90;;;;;;5072006;28;20534;-82
2021/12/19 03:27:32;;;;;;;4.07;1.77;;;8.70;99.90;;;;;;5071833;28;21073;-81
2021/12/19 03:29:59;;;;;;;3.63;2.13;;;8.70;99.90;;;;;;5071943;28;20535;-80
2021/12/19 03:32:26;;;;;;;3.83;2.07;;;8.70;99.90;;;;;;5072160;28;20475;-80
2021/12/19 03:34:53;;;;;;;3.93;1.97;;;8.70;99.90;;;;;;5072583;28;20493;-81
2021/12/19 03:37:20;;;;;;;2.07;1.83;;;8.70;99.90;;;;;;5071937;28;20486;-81
2021/12/19 03:39:56;;;;;;;3.20;2.20;;;8.70;99.90;;;;;;5072151;28;20447;-81
2021/12/19 03:42:24;;;;;;;5.60;2.40;;;8.80;99.90;;;;;;5072226;28;20537;-80
2021/12/19 03:44:53;;;;;;;3.03;1.80;;;8.80;99.90;;;;;;5072344;28;20452;-80
2021/12/19 03:47:19;;;;;;;2.97;2.10;;;8.80;99.90;;;;;;5071521;28;20947;-81
2021/12/19 03:49:46;;;;;;;3.70;2.07;;;8.80;99.90;;;;;;5072201;28;20556;-81
2021/12/19 03:52:13;;;;;;;3.07;2.17;;;8.80;99.90;;;;;;5071965;28;20447;-81
2021/12/19 03:54:40;;;;;;;2.17;1.90;;;8.80;99.90;;;;;;5071904;28;20486;-81
2021/12/19 03:57:06;;;;;;;2.53;1.97;;;8.70;99.90;;;;;;5071592;28;20443;-80
2021/12/19 03:59:33;;;;;;;3.63;2.10;;;8.70;99.90;;;;;;5083088;28;20541;-81
2021/12/19 04:02:01;;;;;;;2.97;1.87;;;8.70;99.90;;;;;;5072030;28;20862;-80
2021/12/19 04:04:30;;;;;;;3.10;1.87;;;8.70;99.90;;;;;;5071922;28;20448;-80
2021/12/19 04:06:56;;;;;;;2.63;2.03;;;8.70;99.90;;;;;;5071868;28;20612;-80
2021/12/19 04:09:23;;;;;;;2.33;2.13;;;8.70;99.90;;;;;;5071608;28;20468;-80
2021/12/19 04:11:51;;;;;;;5.83;2.17;;;8.70;99.90;;;;;;5071656;28;20546;-81
2021/12/19 04:14:18;;;;;;;2.53;2.00;;;8.70;99.90;;;;;;5071877;28;20436;-81
2021/12/19 04:16:44;;;;;;;2.77;2.10;;;8.70;99.90;;;;;;5071690;28;20447;-81
2021/12/19 04:19:13;;;;;;;3.13;2.17;;;8.70;99.90;;;;;;5071517;28;20946;-81
2021/12/19 04:21:39;;;;;;;2.70;2.10;;;8.60;99.90;;;;;;5071280;28;20487;-81
2021/12/19 04:24:07;;;;;;;7.13;2.50;;;8.70;99.90;;;;;;5071907;28;20524;-81
2021/12/19 04:26:33;;;;;;;4.23;2.17;;;8.70;99.90;;;;;;5075303;28;20810;-81
2021/12/19 04:29:00;;;;;;;2.20;2.00;;;8.70;99.90;;;;;;5073177;28;20562;-81
2021/12/19 04:31:26;;;;;;;2.23;2.03;;;8.70;99.90;;;;;;5074862;28;20538;-81
2021/12/19 04:33:53;;;;;;;3.23;2.83;;;8.60;99.90;;;;;;5075229;28;20871;-81
2021/12/19 04:36:27;;;;;;;3.97;2.80;;;8.70;99.90;;;;;;5074991;28;20796;-81
2021/12/19 04:39:20;;;;;;;2.53;2.20;;;8.70;99.90;;;;;;5074971;28;20784;-81
2021/12/19 04:42:25;;;;;;;5.33;2.60;;;8.70;99.90;;;;;;5067754;28;20455;-80
2021/12/19 04:53:09;;;;;;;3.57;3.30;;;8.60;99.90;;;;;;5070742;28;20475;-80
2021/12/19 04:55:56;;;;;;;4.93;2.77;;;8.50;99.90;;;;;;5065694;28;20459;-80
2021/12/19 05:01:27;;;;;;;4.10;3.37;;;8.60;99.90;;;;;;5057558;28;20447;-80
2021/12/19 05:04:07;;;;;;;3.90;2.60;;;8.50;99.90;;;;;;5074382;28;20447;-80
2021/12/19 05:06:52;;;;;;;8.10;3.63;;;8.50;99.90;;;;;;5074639;28;20443;-80
2021/12/19 05:14:52;;;;;;;9.90;3.27;;;8.40;99.90;;;;;;5070160;28;20566;-82
2021/12/19 05:17:23;;;;;;;3.27;2.97;;;8.30;99.90;;;;;;5074082;28;20440;-81
2021/12/19 05:20:03;;;;;;;4.30;3.00;;;8.30;99.90;;;;;;5074390;28;20457;-81
2021/12/19 05:22:33;;;;;;;5.80;2.93;;;8.30;99.90;;;;;;5073836;28;20459;-81
2021/12/19 05:25:12;;;;;;;5.40;3.13;;;8.20;99.90;;;;;;5074288;28;20497;-82
2021/12/19 05:27:40;;;;;;;6.07;3.10;;;8.20;99.90;;;;;;5074079;28;20757;-81
2021/12/19 05:30:08;;;;;;;4.83;3.47;;;8.10;99.90;;;;;;5074034;28;20919;-81
2021/12/19 05:32:34;;;;;;;6.00;3.20;;;8.20;99.90;;;;;;5073843;28;20819;-80
2021/12/19 05:35:01;;;;;;;8.23;3.53;;;8.20;99.90;;;;;;5073616;28;20448;-80
2021/12/19 05:45:41;;;;;;;6.17;2.70;;;8.20;99.90;;;;;;5073692;28;20970;-80
2021/12/19 05:48:08;;;;;;;5.50;3.80;;;8.20;99.90;;;;;;5073584;28;20478;-80
2021/12/19 05:50:34;;;;;;;5.70;3.20;;;8.30;99.90;;;;;;5073689;28;20479;-80
2021/12/19 05:53:01;;;;;;;7.77;3.10;;;8.30;99.90;;;;;;5073506;28;20997;-81
2021/12/19 05:55:29;;;;;;;5.50;2.63;;;8.30;99.90;;;;;;5073421;28;20530;-81
2021/12/19 05:57:56;;;;;;;4.40;3.33;;;8.30;99.90;;;;;;5066346;28;20527;-81
2021/12/19 06:00:22;;;;;;;4.03;2.27;;;8.20;99.90;;;;;;5071182;28;20448;-80
2021/12/19 06:02:49;;;;;;;2.77;2.50;;;8.20;99.90;;;;;;5073560;28;20526;-80
2021/12/19 06:05:16;;;;;;;4.50;2.57;;;8.20;99.90;;;;;;5073388;28;20829;-81
2021/12/19 06:07:43;;;;;;;2.70;2.23;;;8.20;99.90;;;;;;5073402;28;20563;-81
2021/12/19 06:10:10;;;;;;;3.83;2.83;;;8.30;99.90;;;;;;5073344;28;20911;-81
2021/12/19 06:12:39;;;;;;;2.93;2.60;;;8.30;99.90;;;;;;5073140;28;20482;-81
2021/12/19 06:15:08;;;;;;;5.57;2.50;;;8.30;99.90;;;;;;5073313;28;20458;-81
2021/12/19 06:17:34;;;;;;;3.23;2.40;;;8.40;99.90;;;;;;5072941;28;20479;-81
2021/12/19 06:20:02;;;;;;;2.57;2.30;;;8.40;99.90;;;;;;5073199;28;20530;-80
2021/12/19 06:22:29;;;;;;;5.23;2.97;;;8.40;99.90;;;;;;5072827;28;20920;-80
2021/12/19 06:24:55;;;;;;;4.10;2.97;;;8.40;99.90;;;;;;5072732;28;20990;-80
2021/12/19 06:27:22;;;;;;;4.47;2.93;;;8.40;99.90;;;;;;5062326;28;20440;-80
2021/12/19 06:29:50;;;;;;;5.80;2.70;;;8.40;99.90;;;;;;5072865;28;20571;-83
2021/12/19 06:32:17;;;;;;;7.10;2.47;;;8.40;99.90;;;;;;5072706;28;20450;-80
2021/12/19 06:34:43;;;;;;;5.27;2.10;;;8.40;99.90;;;;;;5072799;28;20534;-80
2021/12/19 06:37:10;;;;;;;2.90;2.17;;;8.30;99.90;;;;;;5072702;28;20558;-80
2021/12/19 06:39:39;;;;;;;4.67;2.30;;;8.30;99.90;;;;;;5072333;28;21024;-80
2021/12/19 06:42:07;;;;;;;1.83;1.63;;;8.30;99.90;;;;;;5072944;28;20600;-80
2021/12/19 06:44:34;;;;;;;6.63;3.00;;;8.30;99.90;;;;;;5072503;28;20527;-80
2021/12/19 06:47:04;;;;;;;3.37;2.30;;;8.30;99.90;;;;;;5072099;28;20540;-80
2021/12/19 06:49:31;;;;;;;1.87;1.50;;;8.30;99.90;;;;;;5072208;28;21067;-81
2021/12/19 06:51:57;;;;;;;8.00;2.27;;;8.40;99.90;;;;;;5072505;28;20447;-80
2021/12/19 06:54:24;;;;;;;2.73;2.40;;;8.40;99.90;;;;;;5072259;28;20485;-80
2021/12/19 06:56:50;;;;;;;3.73;2.50;;;8.40;99.90;;;;;;5072629;28;20499;-80
2021/12/19 06:59:17;;;;;;;4.67;2.63;;;8.40;99.90;;;;;;5062682;28;20483;-81
2021/12/19 07:01:43;;;;;;;4.07;2.23;;;8.40;99.90;;;;;;5072389;28;20475;-80
2021/12/19 07:04:11;;;;;;;4.80;2.20;;;8.40;99.90;;;;;;5072324;28;20534;-80
2021/12/19 07:06:38;;;;;;;2.73;1.60;;;8.40;99.90;;;;;;5072155;28;20539;-81
2021/12/19 07:09:04;;;;;;;3.03;1.43;;;8.40;99.90;;;;;;5072261;28;20529;-80
2021/12/19 07:11:31;;;;;;;1.23;1.00;;;8.30;99.90;;;;;;5072357;28;20501;-80
2021/12/19 07:13:57;;;;;;;3.60;1.20;;;8.30;99.90;;;;;;5072266;28;20448;-80
2021/12/19 07:16:24;;;;;;;2.57;1.60;;;8.20;99.90;;;;;;5072072;28;21041;-80
2021/12/19 07:18:50;;;;;;;2.00;1.20;;;8.20;99.90;;;;;;5072218;28;20792;-80
2021/12/19 07:21:18;;;;;;;4.87;2.10;;;8.30;99.90;;;;;;5071688;28;20506;-80
2021/12/19 07:23:46;;;;;;;2.20;1.40;;;8.30;99.90;;;;;;5072204;28;20482;-80
2021/12/19 07:26:12;;;;;;;1.93;1.13;;;8.30;99.90;;;;;;5070798;28;20542;-80
2021/12/19 07:28:40;;;;;;;3.70;1.30;;;8.30;99.90;;;;;;5071890;28;20458;-81
2021/12/19 07:31:07;;;;;;;2.60;1.20;;;8.30;99.90;;;;;;5071803;28;20443;-80
2021/12/19 07:33:33;;;;;;;1.87;1.13;;;8.30;99.90;;;;;;5071784;28;20475;-82
2021/12/19 07:36:01;;;;;;;2.33;1.50;;;8.30;99.90;;;;;;5071547;28;20475;-82
2021/12/19 07:38:33;;;;;;;1.50;1.30;;;8.30;99.90;;;;;;5071839;28;20961;-82
2021/12/19 07:41:02;;;;;;;3.30;1.40;;;8.50;99.90;;;;;;5071954;28;20534;-80
2021/12/19 07:43:29;;;;;;;2.67;1.60;;;8.40;99.90;;;;;;5071537;28;20477;-80
2021/12/19 07:45:56;;;;;;;1.53;1.00;;;8.30;99.90;;;;;;5071857;28;20543;-80
2021/12/19 07:48:23;;;;;;;1.70;1.53;;;8.30;99.90;;;;;;5071550;28;21064;-80
2021/12/19 07:50:49;;;;;;;5.77;1.90;;;8.30;99.90;;;;;;5071483;28;20479;-80
2021/12/19 07:53:16;;;;;;;2.87;1.80;;;8.30;99.90;;;;;;5071761;28;20447;-80
2021/12/19 07:55:44;;;;;;;3.37;1.77;;;8.20;99.90;;;;;;5071506;28;21041;-80
2021/12/19 07:58:11;;;;;;;3.90;1.50;;;8.20;99.90;;;;;;5063320;28;20800;-82
2021/12/19 08:00:38;;;;;;;2.40;1.87;;;8.20;99.90;;;;;;5075266;28;20447;-81
2021/12/19 08:03:04;;;;;;;2.43;1.30;;;8.20;99.90;;;;;;5074877;28;20712;-80
2021/12/19 08:05:31;;;;;;;2.60;1.50;;;8.20;99.90;;;;;;5073190;28;21021;-81
2021/12/19 08:08:01;;;;;;;4.90;1.43;;;8.20;99.90;;;;;;5075511;28;20467;-80
2021/12/19 08:13:14;;;;;;;2.43;1.10;;;8.10;99.90;;;;;;5075405;28;20537;-80
2021/12/19 08:15:41;;;;;;;1.47;0.93;;;8.00;99.90;;;;;;5075382;28;20542;-80
2021/12/19 08:18:08;;;;;;;1.50;0.83;;;7.90;99.90;;;;;;5075506;28;20504;-80
2021/12/19 08:20:34;;;;;;;2.90;0.90;;;7.90;99.90;;;;;;5073508;28;20506;-80
2021/12/19 08:23:01;;;;;;;2.10;1.07;;;7.90;99.90;;;;;;5073262;28;20526;-80
2021/12/19 08:25:28;;;;;;;1.60;1.00;;;7.90;99.90;;;;;;5075158;28;20530;-80
2021/12/19 08:27:55;;;;;;;0.80;0.70;;;7.90;99.90;;;;;;5075072;28;20443;-80
2021/12/19 08:30:24;;;;;;;1.93;1.83;;;7.90;99.90;;;;;;5075051;28;20474;-80
2021/12/19 08:32:52;;;;;;;1.40;1.27;;;7.90;99.90;;;;;;5075198;28;20532;-80
2021/12/19 08:35:18;;;;;;;1.53;0.90;;;7.90;99.90;;;;;;5074927;28;20474;-80
2021/12/19 08:37:45;;;;;;;2.37;1.10;;;7.90;99.90;;;;;;5075073;28;20534;-80
2021/12/19 08:40:12;;;;;;;1.07;0.93;;;7.90;99.90;;;;;;5074932;28;20501;-80
2021/12/19 08:42:39;;;;;;;2.07;1.20;;;7.90;99.90;;;;;;5074941;28;20475;-80
2021/12/19 08:45:06;;;;;;;1.30;1.20;;;7.90;99.90;;;;;;5074882;28;20443;-80
2021/12/19 08:47:35;;;;;;;2.40;1.70;;;7.90;99.90;;;;;;5074886;28;20455;-81
2021/12/19 08:50:01;;;;;;;3.70;1.10;;;7.90;99.90;;;;;;5074727;28;20954;-83
2021/12/19 08:52:28;;;;;;;1.40;1.00;;;7.90;99.90;;;;;;5075262;28;20444;-82
2021/12/19 08:54:54;;;;;;;2.00;1.10;;;7.90;99.90;;;;;;5074563;28;20624;-80
2021/12/19 08:57:21;;;;;;;1.70;1.13;;;7.90;99.90;;;;;;5072411;28;20886;-80
2021/12/19 08:59:47;;;;;;;0.90;0.80;;;7.90;99.90;;;;;;5065355;28;20573;-80
2021/12/19 09:02:14;;;;;;;2.93;1.33;;;7.90;99.90;;;;;;5071598;28;20486;-81
2021/12/19 09:04:42;;;;;;;1.30;1.20;;;7.90;99.90;;;;;;5073132;28;20439;-80
2021/12/19 09:07:08;;;;;;;2.50;1.03;;;8.00;99.90;;;;;;5074169;28;20537;-80
2021/12/19 09:09:35;;;;;;;3.63;1.10;;;7.90;99.90;;;;;;5073899;28;20499;-80
2021/12/19 09:12:02;;;;;;;1.00;0.90;;;7.90;99.90;;;;;;5074022;28;20857;-80
2021/12/19 09:14:28;;;;;;;1.20;0.97;;;7.90;99.90;;;;;;5074643;28;20539;-80
2021/12/19 09:16:55;;;;;;;0.90;0.83;;;8.00;99.90;;;;;;5074232;28;20533;-81
2021/12/19 09:19:22;;;;;;;2.37;1.00;;;8.00;99.90;;;;;;5074326;28;20557;-81
2021/12/19 09:21:50;;;;;;;1.03;0.93;;;8.10;99.90;;;;;;5074002;28;20482;-80
2021/12/19 09:24:16;;;;;;;1.10;0.90;;;8.10;99.90;;;;;;5074153;28;20543;-81
2021/12/19 09:26:43;;;;;;;1.20;0.90;;;8.20;99.90;;;;;;5074306;28;20444;-80
2021/12/19 09:29:09;;;;;;;1.73;1.30;;;8.30;99.90;;;;;;5074131;28;20542;-80
2021/12/19 09:31:36;;;;;;;1.50;1.20;;;8.30;99.90;;;;;;5073738;28;20541;-80
2021/12/19 09:34:03;;;;;;;2.10;0.90;;;8.30;99.90;;;;;;5073979;28;20493;-80
2021/12/19 09:36:30;;;;;;;1.00;0.80;;;8.30;99.90;;;;;;5073542;28;20456;-80
2021/12/19 09:38:57;;;;;;;3.33;1.10;;;8.30;99.90;;;;;;5073371;28;20523;-80
2021/12/19 09:41:29;;;;;;;2.67;1.23;;;8.30;99.90;;;;;;5071913;28;20865;-80
2021/12/19 09:43:58;;;;;;;3.67;1.10;;;8.20;99.90;;;;;;5070878;28;20445;-80
2021/12/19 09:46:28;;;;;;;2.03;1.27;;;8.20;99.90;;;;;;5073302;28;20451;-80
2021/12/19 09:48:55;;;;;;;2.60;1.20;;;8.20;99.90;;;;;;5073186;28;20493;-79
2021/12/19 09:51:24;;;;;;;2.60;1.30;;;8.20;99.90;;;;;;5072637;28;20566;-79
2021/12/19 09:53:51;;;;;;;2.17;1.00;;;8.30;99.90;;;;;;5072422;28;20871;-79
2021/12/19 09:56:19;;;;;;;3.07;1.63;;;8.20;99.90;;;;;;5072761;28;20538;-79
2021/12/19 09:58:46;;;;;;;3.40;1.20;;;8.20;99.90;;;;;;5073219;28;20534;-80
2021/12/19 10:01:13;;;;;;;4.27;2.07;;;8.20;99.90;;;;;;5071310;28;20448;-78
2021/12/19 10:03:40;;;;;;;2.40;1.30;;;8.20;99.90;;;;;;5071118;28;20556;-79
2021/12/19 10:06:18;;;;;;;1.83;1.50;;;8.20;99.90;;;;;;5072925;28;20471;-79
2021/12/19 10:08:46;;;;;;;2.00;1.90;;;8.10;99.90;;;;;;5073293;28;20475;-79
2021/12/19 10:11:34;;;;;;;2.90;1.20;;;8.20;99.90;;;;;;5073149;28;20478;-79
2021/12/19 10:14:01;;;;;;;1.53;1.20;;;8.20;99.90;;;;;;5070761;28;21000;-79
2021/12/19 10:16:30;;;;;;;1.50;0.93;;;8.20;99.90;;;;;;5072921;28;20455;-79
2021/12/19 10:18:59;;;;;;;1.13;1.00;;;8.30;99.90;;;;;;5073024;28;20451;-79
2021/12/19 10:21:27;;;;;;;3.53;1.20;;;8.20;99.90;;;;;;5058240;28;20471;-79
2021/12/19 10:23:59;;;;;;;2.10;1.13;;;8.20;99.90;;;;;;5072609;28;20443;-80
2021/12/19 10:26:39;;;;;;;1.27;1.17;;;8.20;99.90;;;;;;5072938;28;20454;-80
2021/12/19 10:29:07;;;;;;;3.70;1.30;;;8.10;99.90;;;;;;5072866;28;20535;-78
2021/12/19 10:31:33;;;;;;;5.23;2.40;;;8.10;99.90;;;;;;5072768;28;20475;-81
2021/12/19 10:34:18;;;;;;;3.20;1.97;;;8.10;99.90;;;;;;5072583;28;20526;-80
2021/12/19 10:36:44;;;;;;;3.93;2.10;;;8.10;99.90;;;;;;5072801;28;20958;-79
2021/12/19 10:39:15;;;;;;;1.30;1.20;;;8.10;99.90;;;;;;5072364;28;20870;-81
2021/12/19 10:41:42;;;;;;;6.30;2.10;;;8.00;99.90;;;;;;5072703;28;20538;-80
2021/12/19 10:45:29;;;;;;;3.00;1.53;;;8.10;99.90;;;;;;5072035;28;20603;-79
2021/12/19 10:47:17;;;;;;;2.77;1.17;;;8.00;99.90;;;;;;5070991;28;20443;-84
2021/12/19 10:49:47;;;;;;;1.70;1.40;;;8.00;99.90;;;;;;5060979;28;20478;-82
2021/12/19 10:52:13;;;;;;;2.30;1.13;;;7.90;99.90;;;;;;5072248;28;21010;-82
2021/12/19 10:54:59;;;;;;;2.50;1.60;;;7.90;99.90;;;;;;5072663;28;20535;-83
2021/12/19 10:57:32;;;;;;;2.50;1.40;;;7.90;99.90;;;;;;5068999;28;20459;-82
2021/12/19 10:59:59;;;;;;;5.57;1.40;;;7.90;99.90;;;;;;5062996;28;20546;-83
2021/12/19 11:02:35;;;;;;;2.70;1.63;;;7.80;99.90;;;;;;5072608;28;20440;-82
2021/12/19 11:05:04;;;;;;;2.03;1.30;;;7.80;99.90;;;;;;5072374;28;20486;-83
2021/12/19 11:07:31;;;;;;;3.57;1.27;;;7.80;99.90;;;;;;5058999;28;20497;-82
2021/12/19 11:09:58;;;;;;;3.57;1.40;;;7.80;99.90;;;;;;5072498;28;20529;-83
2021/12/19 11:12:24;;;;;;;3.60;1.43;;;7.80;99.90;;;;;;5072372;28;20854;-82
2021/12/19 11:14:52;;;;;;;1.50;1.40;;;7.80;99.90;;;;;;5072461;28;20443;-82
2021/12/19 11:17:20;;;;;;;2.30;1.00;;;7.90;99.90;;;;;;5072334;28;20466;-83
2021/12/19 11:19:48;;;;;;;2.97;1.50;;;8.00;99.90;;;;;;5072352;28;20450;-83
2021/12/19 11:22:23;;;;;;;2.87;1.10;;;8.00;99.90;;;;;;5072083;28;20899;-83
2021/12/19 11:24:50;;;;;;;6.03;1.50;;;8.10;99.90;;;;;;5072219;28;20478;-82
2021/12/19 11:27:16;;;;;;;2.43;1.80;;;8.20;99.90;;;;;;5071873;28;20478;-84
2021/12/19 11:29:45;;;;;;;5.13;2.30;;;8.20;99.90;;;;;;5072679;28;20493;-83
2021/12/19 11:32:18;;;;;;;3.23;1.57;;;8.20;99.90;;;;;;5072152;28;20479;-83
2021/12/19 11:34:57;;;;;;;5.80;1.40;;;8.20;99.90;;;;;;5071780;28;20448;-84
2021/12/19 11:37:28;;;;;;;4.50;1.67;;;8.30;99.90;;;;;;5071556;28;20443;-83
2021/12/19 11:39:57;;;;;;;1.80;1.57;;;8.30;99.90;;;;;;5071801;28;20534;-83
2021/12/19 11:42:31;;;;;;;2.60;1.40;;;8.20;99.90;;;;;;5072150;28;20792;-83
2021/12/19 11:45:14;;;;;;;2.93;1.20;;;8.20;99.90;;;;;;5071269;28;20478;-84
2021/12/19 11:47:44;;;;;;;2.10;1.10;;;8.20;99.90;;;;;;5069385;28;20439;-83
2021/12/19 11:50:18;;;;;;;3.87;1.70;;;8.20;99.90;;;;;;5071310;28;20444;-83
2021/12/19 11:52:46;;;;;;;8.23;2.27;;;8.20;99.90;;;;;;5069961;28;20783;-83
2021/12/19 11:55:25;;;;;;;3.00;2.00;;;8.20;99.90;;;;;;5071726;28;20467;-83
2021/12/19 11:58:16;;;;;;;2.70;1.73;;;8.20;99.90;;;;;;5070431;28;20455;-84
2021/12/19 12:00:47;;;;;;;4.83;1.50;;;8.20;99.90;;;;;;5069397;28;20513;-86
2021/12/19 12:03:29;;;;;;;4.30;1.87;;;8.10;99.90;;;;;;5068827;28;20462;-83
2021/12/19 12:06:37;;;;;;;2.90;1.60;;;8.10;99.90;;;;;;5066804;28;20447;-82
2021/12/19 12:09:24;;;;;;;1.40;1.30;;;8.10;99.90;;;;;;5071165;28;20463;-82
2021/12/19 12:12:14;;;;;;;3.10;1.60;;;8.10;99.90;;;;;;5071502;28;20838;-82
2021/12/19 12:14:51;;;;;;;2.33;1.27;;;8.00;99.90;;;;;;5071985;28;20473;-83
2021/12/19 12:17:23;;;;;;;2.80;1.90;;;8.00;99.90;;;;;;5059536;28;20499;-83
2021/12/19 12:19:53;;;;;;;3.13;1.73;;;8.00;99.90;;;;;;5072056;28;20442;-83
2021/12/19 12:22:50;;;;;;;3.60;1.83;;;8.00;99.90;;;;;;5071881;28;20475;-83
2021/12/19 12:25:32;;;;;;;2.83;1.73;;;8.10;99.90;;;;;;5055488;28;20451;-86
2021/12/19 12:28:04;;;;;;;4.00;1.60;;;8.10;99.90;;;;;;5069276;28;20501;-84
2021/12/19 12:30:33;;;;;;;2.13;1.80;;;8.10;99.90;;;;;;5070113;28;20471;-83
2021/12/19 12:33:02;;;;;;;2.17;1.50;;;8.20;99.90;;;;;;5068286;28;20871;-84
2021/12/19 12:35:31;;;;;;;4.37;2.13;;;8.10;99.90;;;;;;5071608;28;20919;-84
2021/12/19 12:37:58;;;;;;;2.07;1.87;;;8.10;99.90;;;;;;5071553;28;20795;-87
2021/12/19 12:40:30;;;;;;;4.27;1.80;;;8.10;99.90;;;;;;5072203;28;20523;-85
2021/12/19 12:43:05;;;;;;;6.10;1.93;;;8.10;99.90;;;;;;5072228;28;20501;-84
2021/12/19 12:45:58;;;;;;;3.57;1.93;;;8.10;99.90;;;;;;5072935;28;20454;-85
2021/12/19 12:48:29;;;;;;;3.97;1.60;;;8.00;99.90;;;;;;5075617;28;20447;-85
2021/12/19 12:50:56;;;;;;;2.33;1.70;;;8.00;99.90;;;;;;5075642;28;20521;-84
2021/12/19 12:53:31;;;;;;;2.80;1.77;;;8.00;99.90;;;;;;5075596;28;20479;-84
2021/12/19 12:56:18;;;;;;;4.77;1.80;;;8.00;99.90;;;;;;5075106;28;20447;-85
2021/12/19 12:58:47;;;;;;;4.00;1.20;;;8.00;99.90;;;;;;5061473;28;20451;-84
2021/12/19 13:01:21;;;;;;;2.47;1.70;;;8.00;99.90;;;;;;5075293;28;20845;-84
2021/12/19 13:03:59;;;;;;;3.20;1.80;;;8.00;99.90;;;;;;5075217;28;20821;-85
2021/12/19 13:06:41;;;;;;;3.67;1.40;;;8.10;99.90;;;;;;5075097;28;20981;-84
2021/12/19 13:09:11;;;;;;;4.13;2.10;;;8.10;99.90;;;;;;5074887;28;20451;-84
2021/12/19 13:11:39;;;;;;;3.73;1.83;;;8.00;99.90;;;;;;5074916;28;21090;-84
2021/12/19 13:14:15;;;;;;;4.50;1.93;;;8.10;99.90;;;;;;5075150;28;20874;-84
2021/12/19 13:16:43;;;;;;;2.67;2.13;;;8.10;99.90;;;;;;5075009;28;20451;-84
2021/12/19 13:19:10;;;;;;;3.87;1.30;;;8.10;99.90;;;;;;5074856;28;20475;-84
2021/12/19 13:21:54;;;;;;;1.87;1.50;;;8.00;99.90;;;;;;5074751;28;20510;-84
2021/12/19 13:24:21;;;;;;;3.27;1.60;;;8.00;99.90;;;;;;5075068;28;20803;-86
2021/12/19 13:26:49;;;;;;;1.87;1.63;;;8.00;99.90;;;;;;5074620;28;20522;-87
2021/12/19 13:29:20;;;;;;;5.67;1.30;;;8.00;99.90;;;;;;5068584;28;20456;-86
2021/12/19 13:31:48;;;;;;;3.63;1.70;;;8.00;99.90;;;;;;5071880;28;20525;-88
2021/12/19 13:34:14;;;;;;;6.40;1.70;;;8.00;99.90;;;;;;5067892;28;20486;-88
2021/12/19 13:36:41;;;;;;;3.33;1.30;;;8.00;99.90;;;;;;5075143;28;21093;-87
2021/12/19 13:39:17;;;;;;;3.57;1.63;;;8.00;99.90;;;;;;5074821;28;20483;-87
2021/12/19 13:41:44;;;;;;;2.23;1.40;;;8.00;99.90;;;;;;5074807;28;20443;-87
2021/12/19 13:44:12;;;;;;;2.50;1.63;;;8.00;99.90;;;;;;5074844;28;20565;-85
2021/12/19 13:46:38;;;;;;;2.93;1.30;;;8.00;99.90;;;;;;5074313;28;20483;-87
2021/12/19 13:49:05;;;;;;;2.40;1.20;;;8.00;99.90;;;;;;5074426;28;20489;-85
2021/12/19 13:51:34;;;;;;;2.60;1.20;;;8.00;99.90;;;;;;5074065;28;20569;-85
2021/12/19 13:54:03;;;;;;;1.60;1.07;;;8.00;99.90;;;;;;5074434;28;20473;-89
2021/12/19 13:56:32;;;;;;;1.87;1.00;;;7.90;99.90;;;;;;5074644;28;20454;-88
2021/12/19 13:59:05;;;;;;;2.93;1.30;;;7.90;99.90;;;;;;5074408;28;20484;-89
2021/12/19 14:01:35;;;;;;;3.00;1.30;;;7.90;99.90;;;;;;5074460;28;20479;-89